Time;durP1;ratioP1;P1;durP2;ratioP2;P2;SDS_P1;SDS_P2;PMS_P1;PMS_P2;Temp;Humidity;BMP_temperature;BMP_pressure;BME280_temperature;BME280_humidity;BME280_pressure;Samples;Min_cycle;Max_cycle;Signal;HPM_P1;HPM_P2
2021/07/01 00:00:14;;;;;;;3.78;1.92;;;15.10;94.90;;;;;;4881921;29;20107;-82
2021/07/01 00:02:40;;;;;;;4.75;1.75;;;15.10;94.90;;;;;;4881049;29;20017;-81
2021/07/01 00:05:10;;;;;;;5.30;2.20;;;15.10;95.00;;;;;;4881954;29;20111;-81
2021/07/01 00:07:36;;;;;;;4.55;1.70;;;15.10;95.00;;;;;;4881354;29;20028;-81
2021/07/01 00:10:05;;;;;;;4.03;1.70;;;15.10;94.90;;;;;;4882392;29;20393;-81
2021/07/01 00:12:32;;;;;;;2.60;1.90;;;15.10;94.90;;;;;;4880410;29;20032;-79
2021/07/01 00:14:58;;;;;;;3.42;1.70;;;15.10;94.90;;;;;;4881277;29;20028;-83
2021/07/01 00:17:23;;;;;;;3.22;1.63;;;15.10;95.00;;;;;;4897755;29;20449;-82
2021/07/01 00:19:49;;;;;;;1.73;1.48;;;15.10;94.80;;;;;;4898211;29;20031;-81
2021/07/01 00:22:15;;;;;;;6.20;1.52;;;15.10;94.90;;;;;;4875535;29;20111;-81
2021/07/01 00:24:40;;;;;;;2.53;1.80;;;15.10;94.90;;;;;;4881612;29;20029;-81
2021/07/01 00:27:06;;;;;;;2.22;1.70;;;15.10;94.80;;;;;;4880116;29;20024;-82
2021/07/01 00:29:32;;;;;;;3.60;1.77;;;15.10;94.90;;;;;;4880694;29;20043;-83
2021/07/01 00:31:57;;;;;;;5.65;1.70;;;15.10;94.90;;;;;;4898103;29;20901;-82
2021/07/01 00:34:23;;;;;;;2.80;1.77;;;15.20;94.80;;;;;;4897641;29;20020;-82
2021/07/01 00:36:48;;;;;;;3.67;1.92;;;15.10;94.70;;;;;;4897909;29;20024;-81
2021/07/01 00:39:14;;;;;;;3.72;1.70;;;15.10;94.60;;;;;;4897959;29;20043;-83
2021/07/01 00:41:40;;;;;;;4.30;1.90;;;15.10;94.50;;;;;;4880765;29;20020;-83
2021/07/01 00:44:06;;;;;;;3.55;1.70;;;15.10;94.70;;;;;;4881770;29;20024;-82
2021/07/01 00:46:32;;;;;;;1.70;1.30;;;15.10;94.50;;;;;;4880970;29;20505;-83
2021/07/01 00:48:58;;;;;;;6.30;1.77;;;15.10;94.70;;;;;;4880766;29;20462;-83
2021/07/01 00:51:23;;;;;;;3.88;1.70;;;15.10;94.40;;;;;;4883972;29;20071;-83
2021/07/01 00:53:49;;;;;;;2.17;1.10;;;15.20;94.50;;;;;;4897392;29;20117;-82
2021/07/01 00:56:15;;;;;;;4.75;1.65;;;15.20;94.40;;;;;;4897122;29;20043;-82
2021/07/01 00:58:41;;;;;;;2.53;1.25;;;15.20;94.40;;;;;;4893953;29;20462;-83
2021/07/01 01:01:07;;;;;;;10.88;1.50;;;15.20;94.50;;;;;;4896937;29;20020;-83
2021/07/01 01:03:38;;;;;;;4.70;1.52;;;15.20;94.40;;;;;;4897474;29;20024;-83
2021/07/01 01:06:05;;;;;;;2.85;1.45;;;15.20;94.30;;;;;;4898566;29;20021;-83
2021/07/01 01:08:31;;;;;;;5.70;1.35;;;15.20;94.30;;;;;;4912496;29;20029;-82
2021/07/01 01:10:57;;;;;;;4.43;1.48;;;15.20;94.30;;;;;;4922971;29;20033;-80
2021/07/01 01:13:26;;;;;;;6.60;1.60;;;15.20;94.30;;;;;;4888101;29;20365;-81
2021/07/01 01:15:57;;;;;;;2.97;1.30;;;15.20;94.20;;;;;;4915641;29;20025;-79
2021/07/01 01:18:23;;;;;;;2.30;1.57;;;15.20;94.20;;;;;;4893329;29;20033;-78
2021/07/01 01:20:50;;;;;;;2.65;1.38;;;15.20;94.30;;;;;;4878070;29;20033;-78
2021/07/01 01:23:17;;;;;;;2.33;1.63;;;15.20;94.30;;;;;;4917166;29;20466;-79
2021/07/01 01:25:44;;;;;;;3.58;1.60;;;15.20;94.20;;;;;;4898071;29;20025;-79
2021/07/01 01:28:10;;;;;;;3.70;1.70;;;15.20;94.30;;;;;;4896416;29;20032;-79
2021/07/01 01:30:42;;;;;;;3.10;1.75;;;15.20;94.20;;;;;;4911871;29;20027;-79
2021/07/01 01:33:09;;;;;;;3.45;1.73;;;15.20;94.30;;;;;;4890606;29;20071;-78
2021/07/01 01:35:36;;;;;;;3.92;2.00;;;15.20;94.20;;;;;;4889524;29;20024;-79
2021/07/01 01:38:03;;;;;;;3.05;1.60;;;15.20;94.20;;;;;;4898572;29;20032;-79
2021/07/01 01:40:29;;;;;;;3.35;1.80;;;15.20;94.00;;;;;;4899774;29;20029;-78
2021/07/01 01:42:55;;;;;;;4.65;1.80;;;15.20;94.10;;;;;;4895663;29;20021;-78
2021/07/01 01:45:21;;;;;;;3.15;1.60;;;15.20;94.20;;;;;;4890891;29;20032;-79
2021/07/01 01:47:48;;;;;;;2.33;1.55;;;15.20;94.20;;;;;;4918965;29;20510;-79
2021/07/01 01:50:22;;;;;;;2.85;1.75;;;15.20;94.10;;;;;;4898398;29;20040;-78
2021/07/01 01:52:48;;;;;;;7.20;1.92;;;15.30;94.10;;;;;;4896676;29;20467;-78
2021/07/01 01:55:14;;;;;;;2.92;1.67;;;15.20;94.10;;;;;;4890429;29;20039;-80
2021/07/01 01:57:47;;;;;;;4.28;1.65;;;15.20;94.20;;;;;;4889325;29;20040;-79
2021/07/01 02:00:15;;;;;;;2.05;1.73;;;15.20;94.20;;;;;;4896832;29;20509;-81
2021/07/01 02:02:41;;;;;;;3.45;2.13;;;15.20;94.10;;;;;;4884293;29;20021;-81
2021/07/01 02:05:07;;;;;;;4.53;2.00;;;15.20;94.00;;;;;;4889377;29;20044;-81
2021/07/01 02:07:34;;;;;;;2.25;1.67;;;15.20;94.20;;;;;;4899266;29;20020;-81
2021/07/01 02:10:00;;;;;;;3.17;1.73;;;15.20;94.30;;;;;;4887032;29;20081;-81
2021/07/01 02:12:26;;;;;;;3.47;2.00;;;15.20;94.30;;;;;;4897469;29;20031;-81
2021/07/01 02:14:55;;;;;;;2.65;1.85;;;15.20;94.40;;;;;;4886002;29;20016;-78
2021/07/01 02:17:20;;;;;;;4.93;1.67;;;15.20;94.20;;;;;;4922273;29;20036;-80
2021/07/01 02:19:46;;;;;;;4.97;2.10;;;15.20;94.40;;;;;;4893127;29;20025;-80
2021/07/01 02:22:12;;;;;;;5.72;1.95;;;15.20;94.20;;;;;;4915689;29;20048;-79
2021/07/01 02:24:37;;;;;;;5.40;2.20;;;15.20;94.30;;;;;;4884804;29;20029;-81
2021/07/01 02:27:04;;;;;;;6.82;2.30;;;15.20;94.20;;;;;;4899962;29;20051;-80
2021/07/01 02:29:29;;;;;;;4.38;2.40;;;15.20;94.30;;;;;;4920363;29;20084;-79
2021/07/01 02:31:55;;;;;;;3.90;2.17;;;15.20;94.40;;;;;;4893451;29;20382;-82
2021/07/01 02:34:20;;;;;;;3.05;1.98;;;15.20;94.30;;;;;;4897112;29;20035;-82
2021/07/01 02:36:46;;;;;;;3.58;2.15;;;15.20;94.40;;;;;;4885223;29;20029;-82
2021/07/01 02:39:12;;;;;;;4.80;2.10;;;15.20;94.40;;;;;;4893108;29;20036;-82
2021/07/01 02:41:38;;;;;;;5.45;2.40;;;15.20;94.50;;;;;;4892429;29;20108;-82
2021/07/01 02:44:04;;;;;;;3.00;1.90;;;15.30;94.40;;;;;;4916346;29;20351;-80
2021/07/01 02:46:30;;;;;;;3.50;2.10;;;15.30;94.40;;;;;;4895607;29;20461;-79
2021/07/01 02:48:56;;;;;;;4.03;2.05;;;15.30;94.40;;;;;;4884720;29;20033;-81
2021/07/01 02:51:22;;;;;;;3.35;2.25;;;15.20;94.60;;;;;;4890459;29;20383;-81
2021/07/01 02:53:48;;;;;;;3.95;2.17;;;15.20;94.50;;;;;;4892628;29;20069;-81
2021/07/01 02:56:13;;;;;;;3.75;2.17;;;15.20;94.50;;;;;;4914699;29;20029;-82
2021/07/01 02:58:39;;;;;;;4.35;2.40;;;15.10;94.30;;;;;;4926693;29;20025;-82
2021/07/01 03:01:04;;;;;;;3.38;2.28;;;15.10;94.40;;;;;;4886886;29;20025;-79
2021/07/01 03:03:30;;;;;;;3.15;2.20;;;15.20;94.50;;;;;;4889246;29;20387;-80
2021/07/01 03:05:56;;;;;;;2.92;2.08;;;15.10;94.60;;;;;;4894782;29;20024;-80
2021/07/01 03:08:21;;;;;;;8.25;2.30;;;15.20;94.60;;;;;;4897105;29;20029;-80
2021/07/01 03:10:47;;;;;;;4.95;2.53;;;15.10;94.50;;;;;;4884544;29;20029;-80
2021/07/01 03:13:13;;;;;;;3.08;2.00;;;15.10;94.50;;;;;;4922453;29;20083;-81
2021/07/01 03:15:38;;;;;;;4.55;2.38;;;15.10;94.50;;;;;;4890590;29;20115;-80
2021/07/01 03:18:04;;;;;;;3.85;2.00;;;15.20;94.40;;;;;;4885455;29;20104;-81
2021/07/01 03:20:30;;;;;;;4.32;2.00;;;15.20;94.40;;;;;;4894605;29;20039;-81
2021/07/01 03:22:55;;;;;;;4.95;2.30;;;15.20;94.30;;;;;;4886467;29;20386;-81
2021/07/01 03:25:21;;;;;;;3.90;2.28;;;15.20;94.20;;;;;;4920600;29;20047;-81
2021/07/01 03:27:47;;;;;;;3.47;2.38;;;15.20;94.10;;;;;;4891874;29;20033;-80
2021/07/01 03:30:13;;;;;;;4.93;1.98;;;15.20;94.10;;;;;;4898992;29;20028;-82
2021/07/01 03:32:39;;;;;;;5.30;2.10;;;15.30;94.20;;;;;;4884102;29;20101;-81
2021/07/01 03:35:05;;;;;;;3.03;2.20;;;15.20;94.20;;;;;;4886296;29;20081;-80
2021/07/01 03:37:31;;;;;;;4.50;2.10;;;15.20;94.10;;;;;;4913708;29;20035;-80
2021/07/01 03:39:56;;;;;;;4.80;1.90;;;15.20;94.10;;;;;;4913949;29;20033;-80
2021/07/01 03:42:22;;;;;;;4.75;2.03;;;15.30;94.10;;;;;;4896249;29;20115;-80
2021/07/01 03:44:48;;;;;;;3.55;2.13;;;15.20;94.00;;;;;;4883920;29;20024;-79
2021/07/01 03:47:14;;;;;;;3.65;2.20;;;15.30;94.00;;;;;;4921872;29;20025;-80
2021/07/01 03:49:40;;;;;;;4.72;2.00;;;15.20;93.90;;;;;;4891138;29;20116;-79
2021/07/01 03:52:06;;;;;;;4.45;1.80;;;15.20;94.00;;;;;;4914668;29;20053;-81
2021/07/01 03:54:32;;;;;;;3.58;1.77;;;15.20;94.10;;;;;;4894336;29;20119;-80
2021/07/01 03:56:59;;;;;;;5.65;2.60;;;15.20;94.30;;;;;;4886452;29;20035;-81
2021/07/01 03:59:25;;;;;;;2.60;2.00;;;15.20;94.30;;;;;;4897696;29;20084;-81
2021/07/01 04:01:50;;;;;;;6.07;2.17;;;15.20;94.50;;;;;;4918081;29;20029;-81
2021/07/01 04:04:16;;;;;;;4.22;1.98;;;15.20;94.50;;;;;;4882136;29;20029;-81
2021/07/01 04:06:42;;;;;;;3.80;1.92;;;15.20;94.40;;;;;;4897346;29;20020;-81
2021/07/01 04:09:07;;;;;;;3.72;2.17;;;15.20;94.40;;;;;;4891839;29;20481;-81
2021/07/01 04:11:35;;;;;;;3.03;1.70;;;15.20;94.40;;;;;;4897465;29;20161;-80
2021/07/01 04:14:01;;;;;;;6.50;2.03;;;15.20;94.30;;;;;;4897611;29;20123;-81
2021/07/01 04:16:27;;;;;;;4.75;2.38;;;15.20;94.30;;;;;;4911320;29;20036;-81
2021/07/01 04:18:53;;;;;;;3.47;2.28;;;15.20;94.30;;;;;;4879118;29;20032;-80
2021/07/01 04:21:19;;;;;;;2.67;2.13;;;15.20;94.30;;;;;;4886931;29;20040;-81
2021/07/01 04:23:45;;;;;;;4.35;2.30;;;15.20;94.30;;;;;;4917148;29;20028;-80
2021/07/01 04:26:11;;;;;;;4.25;1.85;;;15.20;94.40;;;;;;4893776;29;20029;-79
2021/07/01 04:28:37;;;;;;;4.20;1.90;;;15.20;94.40;;;;;;4893506;29;20530;-82
2021/07/01 04:31:04;;;;;;;4.97;2.08;;;15.20;94.40;;;;;;4885147;29;20036;-78
2021/07/01 04:33:30;;;;;;;3.25;1.70;;;15.20;94.30;;;;;;4887891;29;20021;-80
2021/07/01 04:35:56;;;;;;;4.20;2.00;;;15.20;94.20;;;;;;4893159;29;20029;-79
2021/07/01 04:38:22;;;;;;;3.67;1.95;;;15.30;94.20;;;;;;4895449;29;20040;-82
2021/07/01 04:40:48;;;;;;;4.22;2.20;;;15.20;94.20;;;;;;4884512;29;20024;-79
2021/07/01 04:43:13;;;;;;;6.35;1.90;;;15.30;94.20;;;;;;4920964;29;20485;-79
2021/07/01 04:45:39;;;;;;;2.50;1.95;;;15.30;94.10;;;;;;4878256;29;20029;-79
2021/07/01 04:48:08;;;;;;;3.00;1.67;;;15.30;94.00;;;;;;4893994;29;20036;-79
2021/07/01 04:50:34;;;;;;;3.47;1.90;;;15.30;94.20;;;;;;4881782;29;20029;-79
2021/07/01 04:53:00;;;;;;;4.53;1.70;;;15.30;94.00;;;;;;4892003;29;20474;-79
2021/07/01 04:55:25;;;;;;;3.03;1.58;;;15.30;93.90;;;;;;4888629;29;20044;-80
2021/07/01 04:57:51;;;;;;;4.65;1.77;;;15.40;93.90;;;;;;4916114;29;20021;-80
2021/07/01 05:00:17;;;;;;;4.13;1.92;;;15.30;93.80;;;;;;4893946;29;20506;-79
2021/07/01 05:02:43;;;;;;;5.18;1.88;;;15.40;93.90;;;;;;4882140;29;20021;-80
2021/07/01 05:05:09;;;;;;;7.43;1.75;;;15.40;93.90;;;;;;4885527;29;20366;-79
2021/07/01 05:07:44;;;;;;;4.50;1.45;;;15.40;93.90;;;;;;4896511;29;20459;-79
2021/07/01 05:10:11;;;;;;;3.55;1.63;;;15.50;93.70;;;;;;4886093;29;20495;-79
2021/07/01 05:12:36;;;;;;;4.95;1.90;;;15.50;93.70;;;;;;4894609;29;20031;-79
2021/07/01 05:15:03;;;;;;;2.55;1.73;;;15.50;93.70;;;;;;4888228;29;20020;-79
2021/07/01 05:17:29;;;;;;;3.50;1.55;;;15.50;93.60;;;;;;4921803;29;20025;-79
2021/07/01 05:19:54;;;;;;;3.92;1.60;;;15.50;93.50;;;;;;4896317;29;20411;-80
2021/07/01 05:22:20;;;;;;;4.78;1.60;;;15.60;93.50;;;;;;4901357;29;20347;-80
2021/07/01 05:24:46;;;;;;;2.33;1.60;;;15.60;93.50;;;;;;4931669;29;20051;-78
2021/07/01 05:27:11;;;;;;;3.10;1.48;;;15.60;93.40;;;;;;4924444;29;20025;-79
2021/07/01 05:29:37;;;;;;;4.07;1.60;;;15.60;93.40;;;;;;4891489;29;20498;-79
2021/07/01 05:32:03;;;;;;;6.18;1.73;;;15.60;93.30;;;;;;4899998;29;20091;-79
2021/07/01 05:34:28;;;;;;;5.35;1.65;;;15.60;93.30;;;;;;4884179;29;20029;-79
2021/07/01 05:36:54;;;;;;;6.05;1.90;;;15.60;93.40;;;;;;4901469;29;20017;-78
2021/07/01 05:39:19;;;;;;;7.78;2.00;;;15.60;93.20;;;;;;4922560;29;20036;-80
2021/07/01 05:41:45;;;;;;;3.67;1.83;;;15.60;93.30;;;;;;4893411;29;20024;-79
2021/07/01 05:44:11;;;;;;;3.17;2.05;;;15.60;93.30;;;;;;4916326;29;20028;-78
2021/07/01 05:46:36;;;;;;;4.03;1.80;;;15.60;93.60;;;;;;4896270;29;20025;-79
2021/07/01 05:49:02;;;;;;;4.13;2.00;;;15.70;93.30;;;;;;4887512;29;20028;-79
2021/07/01 05:51:30;;;;;;;3.20;2.10;;;15.70;93.30;;;;;;4920694;29;20060;-79
2021/07/01 05:56:36;;;;;;;4.55;1.65;;;15.70;93.10;;;;;;4897274;29;20454;-79
2021/07/01 05:59:06;;;;;;;;;;;15.70;93.10;;;;;;4887660;29;20025;-79
2021/07/01 06:01:32;;;;;;;4.05;2.08;;;15.70;93.00;;;;;;4899202;29;20404;-79
2021/07/01 06:03:58;;;;;;;5.03;2.33;;;15.70;92.90;;;;;;4887448;29;20029;-79
2021/07/01 06:06:24;;;;;;;3.97;1.70;;;15.70;93.00;;;;;;4897389;29;20044;-79
2021/07/01 06:08:50;;;;;;;7.72;1.80;;;15.80;92.90;;;;;;4926683;29;20032;-79
2021/07/01 06:11:16;;;;;;;3.00;1.55;;;15.80;92.90;;;;;;4888883;29;20084;-79
2021/07/01 06:13:43;;;;;;;4.15;1.77;;;15.80;92.90;;;;;;4919314;29;20028;-79
2021/07/01 06:16:14;;;;;;;6.93;1.80;;;15.80;92.80;;;;;;4891432;29;20056;-79
2021/07/01 06:18:40;;;;;;;4.43;1.83;;;15.90;92.70;;;;;;4899691;29;20017;-80
2021/07/01 06:21:06;;;;;;;2.70;1.90;;;16.00;92.50;;;;;;4899650;29;20020;-79
2021/07/01 06:23:32;;;;;;;3.40;1.48;;;16.00;92.40;;;;;;4919636;29;20467;-79
2021/07/01 06:25:59;;;;;;;2.70;1.85;;;16.10;92.40;;;;;;4881616;29;20029;-80
2021/07/01 06:28:27;;;;;;;2.72;1.80;;;16.00;92.30;;;;;;4896707;29;20028;-79
2021/07/01 06:30:54;;;;;;;3.00;1.70;;;16.00;92.40;;;;;;4871142;29;20079;-80
2021/07/01 06:33:21;;;;;;;2.28;1.75;;;16.00;92.40;;;;;;4921848;29;20048;-81
2021/07/01 06:35:52;;;;;;;3.33;1.83;;;16.10;92.20;;;;;;4894211;29;20111;-81
2021/07/01 06:38:22;;;;;;;4.10;2.22;;;16.10;92.10;;;;;;4899850;29;20549;-81
2021/07/01 06:40:50;;;;;;;4.38;1.98;;;16.10;92.00;;;;;;4898885;29;20029;-81
2021/07/01 06:43:20;;;;;;;3.22;1.80;;;16.10;92.00;;;;;;4899585;29;20489;-80
2021/07/01 06:45:47;;;;;;;3.55;1.90;;;16.20;91.90;;;;;;4898638;29;20027;-80
2021/07/01 06:48:14;;;;;;;3.03;2.00;;;16.20;91.90;;;;;;4899175;29;20028;-84
2021/07/01 06:50:40;;;;;;;3.63;2.10;;;16.30;91.80;;;;;;4914539;29;20032;-80
2021/07/01 06:53:07;;;;;;;2.88;1.65;;;16.30;91.70;;;;;;4911296;29;20035;-80
2021/07/01 06:55:33;;;;;;;4.70;2.13;;;16.40;91.70;;;;;;4898557;29;20143;-79
2021/07/01 06:58:00;;;;;;;3.28;1.80;;;16.40;91.80;;;;;;4894593;29;20024;-80
2021/07/01 07:00:25;;;;;;;4.32;2.00;;;16.50;92.20;;;;;;4930203;29;20036;-81
2021/07/01 07:02:53;;;;;;;4.47;2.10;;;16.60;91.60;;;;;;4893980;29;20039;-80
2021/07/01 07:05:20;;;;;;;3.95;2.05;;;16.60;91.40;;;;;;4889518;29;20080;-81
2021/07/01 07:07:47;;;;;;;3.20;1.92;;;16.60;91.20;;;;;;4898889;29;20036;-80
2021/07/01 07:10:17;;;;;;;6.68;2.40;;;16.60;91.00;;;;;;4930289;29;20136;-82
2021/07/01 07:12:46;;;;;;;6.30;2.30;;;16.60;91.10;;;;;;4880931;29;20085;-80
2021/07/01 07:15:18;;;;;;;4.60;2.88;;;16.60;91.50;;;;;;4887794;29;20020;-80
2021/07/01 07:17:47;;;;;;;;;;;16.60;91.20;;;;;;4893428;29;20033;-80
2021/07/01 07:20:15;;;;;;;4.43;2.75;;;16.70;91.40;;;;;;4913488;29;19971;-83
2021/07/01 07:22:41;;;;;;;7.15;2.45;;;16.70;91.10;;;;;;4898808;29;20028;-81
2021/07/01 07:25:10;;;;;;;4.20;2.15;;;16.60;91.10;;;;;;4899438;29;20484;-81
2021/07/01 07:27:39;;;;;;;4.93;2.38;;;16.60;91.00;;;;;;4897282;29;20032;-80
2021/07/01 07:30:07;;;;;;;2.67;1.80;;;16.70;91.10;;;;;;4888543;29;20032;-80
2021/07/01 07:32:33;;;;;;;3.92;1.85;;;16.60;91.10;;;;;;4897007;29;20043;-81
2021/07/01 07:34:58;;;;;;;2.55;2.03;;;16.60;91.20;;;;;;4925304;29;20025;-80
2021/07/01 07:37:24;;;;;;;5.50;2.20;;;16.60;91.00;;;;;;4898472;29;20123;-81
2021/07/01 07:39:50;;;;;;;3.67;1.92;;;16.60;91.10;;;;;;4898979;29;20048;-81
2021/07/01 07:42:17;;;;;;;3.90;2.13;;;16.60;91.00;;;;;;4897888;29;20037;-82
2021/07/01 07:44:44;;;;;;;4.88;1.98;;;16.60;91.00;;;;;;4928407;29;20024;-81
2021/07/01 07:47:12;;;;;;;2.35;1.65;;;16.60;91.00;;;;;;4895126;29;20043;-80
2021/07/01 07:49:37;;;;;;;2.88;1.73;;;16.60;90.90;;;;;;4897246;29;20108;-81
2021/07/01 07:52:08;;;;;;;2.60;1.90;;;16.70;91.00;;;;;;4897695;29;20056;-80
2021/07/01 07:54:47;;;;;;;3.95;2.00;;;16.60;90.60;;;;;;4897825;29;20536;-82
2021/07/01 07:57:14;;;;;;;3.13;1.77;;;16.70;90.60;;;;;;4899401;29;20017;-81
2021/07/01 07:59:43;;;;;;;2.40;1.80;;;16.70;90.70;;;;;;4929376;29;20033;-82
2021/07/01 08:02:40;;;;;;;2.97;1.63;;;16.80;90.60;;;;;;4888344;29;20021;-81
2021/07/01 08:05:07;;;;;;;4.93;1.58;;;16.90;90.30;;;;;;4890619;29;20036;-79
2021/07/01 08:07:37;;;;;;;2.95;1.60;;;17.00;90.00;;;;;;4878886;29;20025;-79
2021/07/01 08:10:13;;;;;;;3.10;1.80;;;17.00;90.10;;;;;;4895200;29;20028;-78
2021/07/01 08:12:44;;;;;;;2.13;1.70;;;17.10;90.00;;;;;;4896595;29;20044;-80
2021/07/01 08:15:15;;;;;;;2.72;1.73;;;17.10;90.20;;;;;;4895276;29;20024;-78
2021/07/01 08:17:42;;;;;;;2.50;1.77;;;17.20;90.10;;;;;;4898355;29;20355;-80
2021/07/01 08:20:11;;;;;;;3.17;1.75;;;17.20;90.10;;;;;;4899302;29;20310;-80
2021/07/01 08:22:38;;;;;;;3.28;1.90;;;17.30;88.90;;;;;;4928261;29;20028;-81
2021/07/01 08:25:04;;;;;;;3.28;1.67;;;17.50;88.60;;;;;;4897024;29;20024;-80
2021/07/01 08:27:30;;;;;;;2.88;1.73;;;17.50;87.60;;;;;;4897803;29;20073;-79
2021/07/01 08:29:56;;;;;;;2.38;1.58;;;17.50;87.20;;;;;;4914951;29;20068;-80
2021/07/01 08:32:23;;;;;;;2.30;1.48;;;17.40;87.80;;;;;;4879977;29;20081;-81
2021/07/01 08:34:49;;;;;;;3.80;1.70;;;17.50;88.10;;;;;;4897464;29;20024;-80
2021/07/01 08:37:21;;;;;;;3.00;1.80;;;17.40;88.50;;;;;;4922248;29;20028;-80
2021/07/01 08:39:48;;;;;;;3.25;1.75;;;17.50;88.80;;;;;;4898517;29;20036;-81
2021/07/01 08:42:15;;;;;;;4.65;1.30;;;17.40;88.10;;;;;;4896793;29;20044;-81
2021/07/01 08:44:45;;;;;;;4.05;1.45;;;17.40;87.80;;;;;;4897705;29;20025;-80
2021/07/01 08:47:16;;;;;;;2.47;1.60;;;17.40;87.10;;;;;;4896379;29;20370;-80
2021/07/01 08:49:57;;;;;;;3.05;1.55;;;17.40;87.70;;;;;;4912829;29;20357;-81
2021/07/01 08:52:29;;;;;;;4.53;1.58;;;17.30;88.20;;;;;;4896443;29;20473;-82
2021/07/01 08:54:57;;;;;;;4.25;1.80;;;17.20;88.60;;;;;;4897276;29;20036;-80
2021/07/01 08:57:28;;;;;;;5.00;2.03;;;17.10;88.80;;;;;;4897644;29;20514;-80
2021/07/01 09:00:12;;;;;;;2.03;1.55;;;17.10;88.70;;;;;;4915777;29;20041;-79
2021/07/01 09:03:01;;;;;;;2.50;1.58;;;17.00;89.10;;;;;;4886279;29;20471;-79
2021/07/01 09:05:29;;;;;;;3.35;1.90;;;17.00;89.20;;;;;;4888159;29;20025;-79
2021/07/01 09:07:58;;;;;;;7.07;2.45;;;17.00;89.60;;;;;;4878523;29;20055;-79
2021/07/01 09:10:25;;;;;;;3.30;2.22;;;16.90;89.90;;;;;;4894877;29;20040;-79
2021/07/01 09:12:58;;;;;;;5.35;2.35;;;16.80;90.10;;;;;;4928457;29;20128;-79
2021/07/01 09:15:26;;;;;;;5.72;3.05;;;16.80;90.40;;;;;;4927707;29;20149;-79
2021/07/01 09:17:53;;;;;;;4.40;2.28;;;16.70;90.40;;;;;;4915675;29;20556;-79
2021/07/01 09:20:34;;;;;;;5.10;2.60;;;16.80;90.80;;;;;;4878502;29;20047;-79
2021/07/01 09:23:02;;;;;;;3.70;2.47;;;16.70;91.00;;;;;;4884600;29;20032;-80
2021/07/01 09:25:27;;;;;;;3.92;2.17;;;16.70;91.10;;;;;;4880407;29;20072;-80
2021/07/01 09:27:55;;;;;;;3.30;1.85;;;16.60;91.20;;;;;;4909797;29;20447;-80
2021/07/01 09:30:26;;;;;;;2.63;1.90;;;16.60;91.20;;;;;;4864659;29;20041;-79
2021/07/01 09:33:02;;;;;;;3.88;2.33;;;16.70;91.20;;;;;;4898173;29;20036;-79
2021/07/01 09:35:33;;;;;;;3.50;2.03;;;16.70;91.00;;;;;;4896603;29;20055;-79
2021/07/01 09:38:07;;;;;;;6.05;2.00;;;16.80;90.60;;;;;;4882673;29;20025;-79
2021/07/01 09:40:35;;;;;;;4.47;2.30;;;16.90;90.40;;;;;;4877366;29;20039;-79
2021/07/01 09:43:03;;;;;;;2.55;1.88;;;17.00;90.10;;;;;;4883972;29;20131;-79
2021/07/01 09:45:31;;;;;;;6.53;2.00;;;17.10;90.00;;;;;;4896736;29;20488;-79
2021/07/01 09:48:11;;;;;;;2.35;1.77;;;17.10;89.80;;;;;;4897368;29;20025;-79
2021/07/01 09:50:39;;;;;;;2.45;1.77;;;17.10;90.20;;;;;;4881757;29;20041;-79
2021/07/01 09:53:08;;;;;;;3.38;1.67;;;17.10;89.10;;;;;;4879222;29;20033;-83
2021/07/01 09:55:34;;;;;;;2.05;1.70;;;17.20;89.70;;;;;;4877887;29;20040;-82
2021/07/01 09:58:06;;;;;;;3.35;1.98;;;17.20;89.80;;;;;;4910113;29;20025;-83
2021/07/01 10:00:32;;;;;;;2.63;1.83;;;17.20;89.40;;;;;;4882716;29;20029;-83
2021/07/01 10:03:06;;;;;;;2.50;1.45;;;17.30;88.50;;;;;;4923410;29;20059;-83
2021/07/01 10:05:32;;;;;;;1.80;1.58;;;17.20;88.10;;;;;;4917006;29;20537;-83
2021/07/01 10:07:58;;;;;;;2.30;1.35;;;17.20;88.60;;;;;;4906370;29;20029;-82
2021/07/01 10:10:24;;;;;;;7.07;1.63;;;17.30;88.40;;;;;;4916243;29;20139;-81
2021/07/01 10:12:55;;;;;;;1.92;1.50;;;17.10;87.90;;;;;;4916615;29;20061;-83
2021/07/01 10:15:31;;;;;;;3.05;1.30;;;17.10;87.30;;;;;;4900036;29;20025;-82
2021/07/01 10:18:07;;;;;;;1.80;1.42;;;17.10;87.80;;;;;;4933054;29;20021;-83
2021/07/01 10:20:34;;;;;;;2.15;1.38;;;17.10;88.20;;;;;;4931545;29;20474;-83
2021/07/01 10:23:01;;;;;;;2.17;1.73;;;17.10;88.70;;;;;;4916373;29;20040;-82
2021/07/01 10:25:31;;;;;;;3.67;1.90;;;17.20;88.90;;;;;;4901102;29;20028;-82
2021/07/01 10:28:09;;;;;;;2.58;1.60;;;17.20;88.80;;;;;;4918498;29;20106;-81
2021/07/01 10:30:34;;;;;;;4.40;1.98;;;17.20;88.90;;;;;;4880751;29;20169;-81
2021/07/01 10:33:00;;;;;;;2.58;1.70;;;17.10;89.10;;;;;;4885319;29;20124;-82
2021/07/01 10:35:38;;;;;;;2.70;1.80;;;17.20;90.00;;;;;;4890030;29;20109;-83
2021/07/01 10:38:12;;;;;;;3.08;1.90;;;17.20;90.20;;;;;;4915785;29;20033;-82
2021/07/01 10:40:53;;;;;;;2.95;1.95;;;17.30;89.70;;;;;;4880986;29;20142;-81
2021/07/01 10:43:20;;;;;;;3.35;1.70;;;17.30;89.80;;;;;;4881961;29;20025;-80
2021/07/01 10:45:58;;;;;;;2.47;1.92;;;17.30;89.70;;;;;;4913049;29;20186;-82
2021/07/01 10:48:26;;;;;;;3.28;1.92;;;17.40;90.20;;;;;;4900187;29;20179;-82
2021/07/01 10:50:54;;;;;;;4.07;1.95;;;17.40;89.90;;;;;;4899726;29;20043;-81
2021/07/01 10:53:41;;;;;;;4.18;1.77;;;17.40;89.10;;;;;;4899724;29;20033;-78
2021/07/01 10:56:08;;;;;;;2.85;1.83;;;17.50;89.80;;;;;;4900886;29;20029;-79
2021/07/01 10:58:34;;;;;;;2.88;1.92;;;17.50;88.40;;;;;;4881762;29;20360;-82
2021/07/01 11:01:02;;;;;;;3.13;1.65;;;17.60;88.60;;;;;;4884163;29;20442;-81
2021/07/01 11:03:30;;;;;;;3.45;1.95;;;17.60;88.20;;;;;;4899162;29;20060;-81
2021/07/01 11:05:57;;;;;;;3.83;1.90;;;17.70;87.10;;;;;;4900175;29;20028;-81
2021/07/01 11:08:23;;;;;;;3.53;1.77;;;17.70;86.60;;;;;;4899052;29;20028;-79
2021/07/01 11:10:49;;;;;;;2.28;1.70;;;17.70;87.00;;;;;;4898919;29;20044;-80
2021/07/01 11:13:15;;;;;;;5.03;2.03;;;17.80;86.90;;;;;;4900159;29;20032;-81
2021/07/01 11:16:04;;;;;;;3.85;1.77;;;17.70;86.90;;;;;;4897736;29;20090;-81
2021/07/01 11:18:38;;;;;;;2.63;1.85;;;17.60;88.80;;;;;;4895930;29;20034;-80
2021/07/01 11:21:21;;;;;;;4.97;1.65;;;17.60;87.30;;;;;;4898931;29;20037;-84
2021/07/01 11:23:50;;;;;;;3.15;1.50;;;17.70;85.20;;;;;;4903541;29;20120;-85
2021/07/01 11:26:31;;;;;;;2.78;1.52;;;17.90;84.90;;;;;;4907734;29;20036;-83
2021/07/01 11:28:59;;;;;;;2.47;1.60;;;18.10;84.40;;;;;;4902343;29;20039;-83
2021/07/01 11:31:40;;;;;;;2.00;1.25;;;18.30;83.00;;;;;;4901788;29;20478;-84
2021/07/01 11:34:07;;;;;;;1.60;1.50;;;18.30;82.00;;;;;;4899244;29;20107;-87
2021/07/01 11:36:35;;;;;;;1.75;1.13;;;18.30;81.90;;;;;;4899855;29;20423;-88
2021/07/01 11:39:05;;;;;;;2.28;1.48;;;18.40;81.40;;;;;;4904920;29;20060;-88
2021/07/01 11:41:32;;;;;;;2.40;1.40;;;18.50;80.80;;;;;;4906066;29;20030;-85
2021/07/01 11:43:58;;;;;;;1.27;1.15;;;18.60;80.60;;;;;;4905798;29;20025;-86
2021/07/01 11:46:25;;;;;;;2.10;1.30;;;18.70;80.00;;;;;;4932996;29;20036;-85
2021/07/01 11:48:52;;;;;;;2.58;1.48;;;18.80;80.50;;;;;;4899964;29;20037;-87
2021/07/01 11:51:21;;;;;;;2.17;1.20;;;18.70;80.30;;;;;;4889525;29;20163;-87
2021/07/01 11:53:50;;;;;;;3.40;1.48;;;18.60;80.50;;;;;;4883746;29;20033;-86
2021/07/01 11:56:16;;;;;;;4.18;1.90;;;18.50;80.00;;;;;;4884226;29;20115;-86
2021/07/01 11:58:43;;;;;;;1.95;1.40;;;18.30;81.40;;;;;;4883562;29;20035;-85
2021/07/01 12:01:10;;;;;;;4.07;1.55;;;18.20;82.50;;;;;;4883905;29;20393;-86
2021/07/01 12:03:40;;;;;;;3.30;1.40;;;18.10;82.60;;;;;;4899887;29;20032;-85
2021/07/01 12:06:17;;;;;;;3.92;1.65;;;18.00;81.20;;;;;;4883106;29;20032;-83
2021/07/01 12:08:42;;;;;;;1.48;1.13;;;17.80;80.80;;;;;;4863742;29;20039;-80
2021/07/01 12:11:08;;;;;;;2.13;1.50;;;17.80;81.50;;;;;;4865355;29;20033;-88
2021/07/01 12:13:34;;;;;;;4.72;1.40;;;17.70;81.90;;;;;;4873808;29;20169;-83
2021/07/01 12:16:00;;;;;;;28.15;18.90;;;17.80;81.70;;;;;;4883834;29;20054;-82
2021/07/01 12:18:52;;;;;;;3.88;2.72;;;17.80;82.50;;;;;;4893685;29;20111;-84
2021/07/01 12:21:22;;;;;;;3.85;1.75;;;17.80;80.60;;;;;;4897923;29;20028;-84
2021/07/01 12:24:05;;;;;;;3.47;1.50;;;17.70;81.10;;;;;;4891119;29;20046;-84
2021/07/01 12:26:34;;;;;;;1.58;1.20;;;17.60;81.10;;;;;;4911466;29;20024;-84
2021/07/01 12:29:02;;;;;;;3.55;1.13;;;17.60;80.40;;;;;;4888394;29;20044;-83
2021/07/01 12:31:28;;;;;;;3.63;1.23;;;17.70;80.30;;;;;;4898745;29;20104;-82
2021/07/01 12:33:58;;;;;;;2.47;1.30;;;17.70;79.40;;;;;;4882366;29;20024;-81
2021/07/01 12:36:27;;;;;;;2.40;1.40;;;17.70;79.40;;;;;;4882247;29;20025;-84
2021/07/01 12:39:06;;;;;;;2.33;1.50;;;17.60;79.70;;;;;;4882286;29;20024;-80
2021/07/01 12:41:32;;;;;;;2.65;1.30;;;17.50;79.80;;;;;;4881172;29;20442;-80
2021/07/01 12:44:25;;;;;;;2.15;1.40;;;17.50;80.30;;;;;;4882740;29;20115;-81
2021/07/01 12:46:50;;;;;;;5.32;1.60;;;17.40;80.00;;;;;;4897031;29;20115;-81
2021/07/01 12:49:32;;;;;;;2.65;1.73;;;17.40;80.50;;;;;;4898924;29;20124;-83
2021/07/01 12:52:01;;;;;;;3.13;1.67;;;17.40;80.30;;;;;;4882125;29;20064;-82
2021/07/01 12:54:30;;;;;;;5.18;1.63;;;17.40;80.70;;;;;;4897009;29;20086;-83